sensor_id;sensor_type;location;lat;lon;timestamp;pressure;altitude;pressure_sealevel;temperature;humidity
77235;BME280;66253;50.526;14.974;2024-01-15T00:02:09;97377.85;;;0.07;83.66
77235;BME280;66253;50.526;14.974;2024-01-15T00:04:39;97379.72;;;0.06;83.70
77235;BME280;66253;50.526;14.974;2024-01-15T00:07:10;97370.31;;;0.06;83.64
77235;BME280;66253;50.526;14.974;2024-01-15T00:09:39;97363.17;;;0.05;83.77
77235;BME280;66253;50.526;14.974;2024-01-15T00:12:08;97364.74;;;0.04;83.06
77235;BME280;66253;50.526;14.974;2024-01-15T00:14:36;97367.59;;;0.03;83.38
77235;BME280;66253;50.526;14.974;2024-01-15T00:17:05;97365.08;;;0.03;83.22
77235;BME280;66253;50.526;14.974;2024-01-15T00:19:33;97364.42;;;0.03;83.34
77235;BME280;66253;50.526;14.974;2024-01-15T00:22:01;97356.57;;;0.02;83.37
77235;BME280;66253;50.526;14.974;2024-01-15T00:24:29;97354.25;;;0.02;83.38
77235;BME280;66253;50.526;14.974;2024-01-15T00:26:57;97346.63;;;0.03;83.43
77235;BME280;66253;50.526;14.974;2024-01-15T00:29:26;97341.41;;;0.04;83.32
77235;BME280;66253;50.526;14.974;2024-01-15T00:31:54;97336.49;;;0.05;83.64
77235;BME280;66253;50.526;14.974;2024-01-15T00:34:22;97331.07;;;0.06;83.16
77235;BME280;66253;50.526;14.974;2024-01-15T00:36:50;97324.84;;;0.07;83.32
77235;BME280;66253;50.526;14.974;2024-01-15T00:39:19;97321.79;;;0.07;83.20
77235;BME280;66253;50.526;14.974;2024-01-15T00:41:47;97317.20;;;0.08;83.23
77235;BME280;66253;50.526;14.974;2024-01-15T00:44:15;97310.61;;;0.09;83.15
77235;BME280;66253;50.526;14.974;2024-01-15T00:46:46;97302.91;;;0.09;83.34
77235;BME280;66253;50.526;14.974;2024-01-15T00:49:15;97300.79;;;0.08;82.80
77235;BME280;66253;50.526;14.974;2024-01-15T00:51:43;97296.98;;;0.06;83.04
77235;BME280;66253;50.526;14.974;2024-01-15T00:54:11;97293.85;;;0.05;82.88
77235;BME280;66253;50.526;14.974;2024-01-15T00:56:40;97303.63;;;0.04;82.79
77235;BME280;66253;50.526;14.974;2024-01-15T00:59:08;97302.80;;;0.04;82.68
77235;BME280;66253;50.526;14.974;2024-01-15T01:01:36;97306.70;;;0.03;82.43
77235;BME280;66253;50.526;14.974;2024-01-15T01:04:04;97313.79;;;0.02;82.31
77235;BME280;66253;50.526;14.974;2024-01-15T01:06:32;97318.98;;;0.02;82.53
77235;BME280;66253;50.526;14.974;2024-01-15T01:09:01;97317.48;;;0.02;82.93
77235;BME280;66253;50.526;14.974;2024-01-15T01:11:31;97312.95;;;0.02;82.44
77235;BME280;66253;50.526;14.974;2024-01-15T01:13:59;97306.43;;;0.01;82.36
77235;BME280;66253;50.526;14.974;2024-01-15T01:16:27;97303.09;;;0.01;82.45
77235;BME280;66253;50.526;14.974;2024-01-15T01:18:56;97298.70;;;0.02;82.43
77235;BME280;66253;50.526;14.974;2024-01-15T01:21:24;97289.41;;;0.03;82.16
77235;BME280;66253;50.526;14.974;2024-01-15T01:23:52;97277.52;;;0.02;82.00
77235;BME280;66253;50.526;14.974;2024-01-15T01:26:20;97275.73;;;0.01;82.41
77235;BME280;66253;50.526;14.974;2024-01-15T01:28:49;97267.06;;;-0.00;82.23
77235;BME280;66253;50.526;14.974;2024-01-15T01:31:17;97265.55;;;0.00;82.23
77235;BME280;66253;50.526;14.974;2024-01-15T01:33:45;97273.32;;;-0.02;81.86
77235;BME280;66253;50.526;14.974;2024-01-15T01:36:13;97269.52;;;-0.03;82.05
77235;BME280;66253;50.526;14.974;2024-01-15T01:38:42;97265.73;;;-0.05;82.03
77235;BME280;66253;50.526;14.974;2024-01-15T01:41:10;97265.98;;;-0.06;82.19
77235;BME280;66253;50.526;14.974;2024-01-15T01:43:39;97259.48;;;-0.08;82.24
77235;BME280;66253;50.526;14.974;2024-01-15T01:46:07;97260.67;;;-0.08;82.20
77235;BME280;66253;50.526;14.974;2024-01-15T01:48:35;97266.39;;;-0.08;82.19
77235;BME280;66253;50.526;14.974;2024-01-15T01:51:05;97262.19;;;-0.08;82.16
77235;BME280;66253;50.526;14.974;2024-01-15T01:53:35;97264.00;;;-0.08;82.09
77235;BME280;66253;50.526;14.974;2024-01-15T01:56:05;97263.34;;;-0.08;82.04
77235;BME280;66253;50.526;14.974;2024-01-15T01:58:34;97266.20;;;-0.08;82.02
77235;BME280;66253;50.526;14.974;2024-01-15T02:01:03;97262.81;;;-0.07;82.16
77235;BME280;66253;50.526;14.974;2024-01-15T02:03:32;97261.80;;;-0.06;82.45
77235;BME280;66253;50.526;14.974;2024-01-15T02:06:00;97254.46;;;-0.08;83.04
77235;BME280;66253;50.526;14.974;2024-01-15T02:08:30;97247.70;;;-0.10;83.36
77235;BME280;66253;50.526;14.974;2024-01-15T02:10:58;97246.27;;;-0.12;84.07
77235;BME280;66253;50.526;14.974;2024-01-15T02:13:27;97247.17;;;-0.14;84.04
77235;BME280;66253;50.526;14.974;2024-01-15T02:15:55;97245.41;;;-0.15;84.02
77235;BME280;66253;50.526;14.974;2024-01-15T02:18:25;97242.29;;;-0.17;84.68
77235;BME280;66253;50.526;14.974;2024-01-15T02:20:53;97238.56;;;-0.20;85.02
77235;BME280;66253;50.526;14.974;2024-01-15T02:23:22;97241.09;;;-0.20;85.19
77235;BME280;66253;50.526;14.974;2024-01-15T02:25:50;97243.33;;;-0.21;84.47
77235;BME280;66253;50.526;14.974;2024-01-15T02:28:18;97238.33;;;-0.22;84.52
77235;BME280;66253;50.526;14.974;2024-01-15T02:30:47;97232.46;;;-0.22;84.43
77235;BME280;66253;50.526;14.974;2024-01-15T02:33:15;97232.83;;;-0.22;84.48
77235;BME280;66253;50.526;14.974;2024-01-15T02:35:43;97227.13;;;-0.23;84.54
77235;BME280;66253;50.526;14.974;2024-01-15T02:38:12;97227.90;;;-0.21;84.55
77235;BME280;66253;50.526;14.974;2024-01-15T02:40:40;97225.17;;;-0.20;84.35
77235;BME280;66253;50.526;14.974;2024-01-15T02:43:09;97224.16;;;-0.20;83.81
77235;BME280;66253;50.526;14.974;2024-01-15T02:45:37;97219.29;;;-0.20;84.22
77235;BME280;66253;50.526;14.974;2024-01-15T02:48:06;97220.43;;;-0.19;83.98
77235;BME280;66253;50.526;14.974;2024-01-15T02:50:34;97217.55;;;-0.19;84.11
77235;BME280;66253;50.526;14.974;2024-01-15T02:53:03;97212.30;;;-0.18;84.37
77235;BME280;66253;50.526;14.974;2024-01-15T02:55:31;97207.73;;;-0.17;83.69
77235;BME280;66253;50.526;14.974;2024-01-15T02:57:59;97203.00;;;-0.16;83.72
77235;BME280;66253;50.526;14.974;2024-01-15T03:00:28;97206.19;;;-0.16;83.89
77235;BME280;66253;50.526;14.974;2024-01-15T03:02:56;97211.34;;;-0.15;83.71
77235;BME280;66253;50.526;14.974;2024-01-15T03:05:24;97205.27;;;-0.14;83.43
77235;BME280;66253;50.526;14.974;2024-01-15T03:07:53;97193.84;;;-0.14;83.45
77235;BME280;66253;50.526;14.974;2024-01-15T03:10:21;97186.61;;;-0.14;83.34
77235;BME280;66253;50.526;14.974;2024-01-15T03:12:49;97184.84;;;-0.15;83.37
77235;BME280;66253;50.526;14.974;2024-01-15T03:15:17;97186.98;;;-0.18;83.72
77235;BME280;66253;50.526;14.974;2024-01-15T03:17:45;97190.25;;;-0.20;83.73
77235;BME280;66253;50.526;14.974;2024-01-15T03:20:14;97194.50;;;-0.21;83.80
77235;BME280;66253;50.526;14.974;2024-01-15T03:22:42;97199.44;;;-0.22;83.92
77235;BME280;66253;50.526;14.974;2024-01-15T03:25:10;97201.77;;;-0.22;83.67
77235;BME280;66253;50.526;14.974;2024-01-15T03:27:39;97202.14;;;-0.24;84.09
77235;BME280;66253;50.526;14.974;2024-01-15T03:30:09;97198.88;;;-0.26;83.99
77235;BME280;66253;50.526;14.974;2024-01-15T03:32:37;97202.96;;;-0.27;84.12
77235;BME280;66253;50.526;14.974;2024-01-15T03:35:07;97203.50;;;-0.28;83.77
77235;BME280;66253;50.526;14.974;2024-01-15T03:37:35;97201.36;;;-0.28;83.62
77235;BME280;66253;50.526;14.974;2024-01-15T03:40:04;97201.79;;;-0.30;83.37
77235;BME280;66253;50.526;14.974;2024-01-15T03:42:32;97211.48;;;-0.29;82.90
77235;BME280;66253;50.526;14.974;2024-01-15T03:45:01;97209.07;;;-0.28;82.95
77235;BME280;66253;50.526;14.974;2024-01-15T03:47:30;97210.36;;;-0.27;82.79
77235;BME280;66253;50.526;14.974;2024-01-15T03:49:58;97209.82;;;-0.26;82.81
77235;BME280;66253;50.526;14.974;2024-01-15T03:52:28;97208.11;;;-0.26;82.28
77235;BME280;66253;50.526;14.974;2024-01-15T03:54:56;97207.32;;;-0.27;81.98
77235;BME280;66253;50.526;14.974;2024-01-15T03:57:24;97207.13;;;-0.27;82.15
77235;BME280;66253;50.526;14.974;2024-01-15T03:59:53;97209.14;;;-0.26;82.58
77235;BME280;66253;50.526;14.974;2024-01-15T04:02:21;97208.14;;;-0.26;82.43
77235;BME280;66253;50.526;14.974;2024-01-15T04:04:49;97200.60;;;-0.27;82.39
77235;BME280;66253;50.526;14.974;2024-01-15T04:07:17;97192.80;;;-0.25;82.56
77235;BME280;66253;50.526;14.974;2024-01-15T04:09:45;97188.38;;;-0.23;82.43
77235;BME280;66253;50.526;14.974;2024-01-15T04:12:14;97185.13;;;-0.22;82.37
77235;BME280;66253;50.526;14.974;2024-01-15T04:14:42;97184.29;;;-0.21;82.24
77235;BME280;66253;50.526;14.974;2024-01-15T04:17:10;97181.55;;;-0.21;82.10
77235;BME280;66253;50.526;14.974;2024-01-15T04:19:38;97177.71;;;-0.21;82.25
77235;BME280;66253;50.526;14.974;2024-01-15T04:22:07;97172.13;;;-0.20;81.88
77235;BME280;66253;50.526;14.974;2024-01-15T04:24:35;97173.10;;;-0.19;81.89
77235;BME280;66253;50.526;14.974;2024-01-15T04:27:03;97172.39;;;-0.18;82.04
77235;BME280;66253;50.526;14.974;2024-01-15T04:29:32;97167.67;;;-0.18;81.85
77235;BME280;66253;50.526;14.974;2024-01-15T04:32:01;97172.17;;;-0.17;81.91
77235;BME280;66253;50.526;14.974;2024-01-15T04:34:30;97172.50;;;-0.16;81.94
77235;BME280;66253;50.526;14.974;2024-01-15T04:36:58;97167.64;;;-0.17;81.59
77235;BME280;66253;50.526;14.974;2024-01-15T04:39:29;97168.17;;;-0.18;80.97
77235;BME280;66253;50.526;14.974;2024-01-15T04:41:58;97169.46;;;-0.17;81.11
77235;BME280;66253;50.526;14.974;2024-01-15T04:44:27;97166.61;;;-0.17;81.21
77235;BME280;66253;50.526;14.974;2024-01-15T04:46:56;97170.97;;;-0.16;81.07
77235;BME280;66253;50.526;14.974;2024-01-15T04:49:25;97168.55;;;-0.15;81.02
77235;BME280;66253;50.526;14.974;2024-01-15T04:51:53;97168.23;;;-0.15;81.36
77235;BME280;66253;50.526;14.974;2024-01-15T04:54:24;97168.02;;;-0.15;81.02
77235;BME280;66253;50.526;14.974;2024-01-15T04:56:52;97167.34;;;-0.14;81.22
77235;BME280;66253;50.526;14.974;2024-01-15T04:59:20;97175.04;;;-0.14;81.39
77235;BME280;66253;50.526;14.974;2024-01-15T05:01:49;97174.84;;;-0.13;81.03
77235;BME280;66253;50.526;14.974;2024-01-15T05:04:17;97173.44;;;-0.15;81.00
77235;BME280;66253;50.526;14.974;2024-01-15T05:06:47;97174.15;;;-0.16;81.14
77235;BME280;66253;50.526;14.974;2024-01-15T05:09:15;97173.86;;;-0.17;81.43
77235;BME280;66253;50.526;14.974;2024-01-15T05:11:44;97181.05;;;-0.17;80.94
77235;BME280;66253;50.526;14.974;2024-01-15T05:14:12;97178.41;;;-0.18;80.71
77235;BME280;66253;50.526;14.974;2024-01-15T05:16:44;97180.85;;;-0.16;80.21
77235;BME280;66253;50.526;14.974;2024-01-15T05:19:14;97181.98;;;-0.15;80.60
77235;BME280;66253;50.526;14.974;2024-01-15T05:21:43;97182.09;;;-0.14;80.49
77235;BME280;66253;50.526;14.974;2024-01-15T05:24:11;97187.60;;;-0.13;80.32
77235;BME280;66253;50.526;14.974;2024-01-15T05:26:39;97185.25;;;-0.13;80.50
77235;BME280;66253;50.526;14.974;2024-01-15T05:29:07;97193.02;;;-0.14;80.52
77235;BME280;66253;50.526;14.974;2024-01-15T05:31:36;97198.04;;;-0.14;80.73
77235;BME280;66253;50.526;14.974;2024-01-15T05:34:05;97202.63;;;-0.15;81.40
77235;BME280;66253;50.526;14.974;2024-01-15T05:36:33;97201.81;;;-0.16;81.86
77235;BME280;66253;50.526;14.974;2024-01-15T05:39:02;97205.69;;;-0.16;81.51
77235;BME280;66253;50.526;14.974;2024-01-15T05:41:30;97210.52;;;-0.15;81.41
77235;BME280;66253;50.526;14.974;2024-01-15T05:43:58;97207.49;;;-0.15;80.80
77235;BME280;66253;50.526;14.974;2024-01-15T05:46:27;97192.75;;;-0.16;80.85
77235;BME280;66253;50.526;14.974;2024-01-15T05:48:56;97189.63;;;-0.17;80.68
77235;BME280;66253;50.526;14.974;2024-01-15T05:51:24;97194.22;;;-0.19;80.67
77235;BME280;66253;50.526;14.974;2024-01-15T05:53:52;97195.80;;;-0.20;80.14
77235;BME280;66253;50.526;14.974;2024-01-15T05:56:20;97192.42;;;-0.24;79.72
77235;BME280;66253;50.526;14.974;2024-01-15T05:58:49;97186.08;;;-0.28;79.69
77235;BME280;66253;50.526;14.974;2024-01-15T06:01:17;97185.41;;;-0.32;79.81
77235;BME280;66253;50.526;14.974;2024-01-15T06:03:45;97186.14;;;-0.37;79.85
77235;BME280;66253;50.526;14.974;2024-01-15T06:06:13;97193.54;;;-0.41;79.34
77235;BME280;66253;50.526;14.974;2024-01-15T06:08:42;97194.08;;;-0.45;79.16
77235;BME280;66253;50.526;14.974;2024-01-15T06:11:10;97195.05;;;-0.49;79.12
77235;BME280;66253;50.526;14.974;2024-01-15T06:13:38;97195.21;;;-0.52;79.46
77235;BME280;66253;50.526;14.974;2024-01-15T06:16:17;97199.98;;;-0.54;79.81
77235;BME280;66253;50.526;14.974;2024-01-15T06:18:45;97207.35;;;-0.58;79.66
77235;BME280;66253;50.526;14.974;2024-01-15T06:21:13;97207.29;;;-0.60;79.60
77235;BME280;66253;50.526;14.974;2024-01-15T06:23:42;97205.60;;;-0.64;79.55
77235;BME280;66253;50.526;14.974;2024-01-15T06:26:12;97205.80;;;-0.68;79.37
77235;BME280;66253;50.526;14.974;2024-01-15T06:28:42;97209.63;;;-0.72;79.69
77235;BME280;66253;50.526;14.974;2024-01-15T06:31:10;97205.59;;;-0.75;79.40
77235;BME280;66253;50.526;14.974;2024-01-15T06:33:38;97205.88;;;-0.78;79.36
77235;BME280;66253;50.526;14.974;2024-01-15T06:36:08;97204.00;;;-0.81;79.56
77235;BME280;66253;50.526;14.974;2024-01-15T06:38:36;97206.01;;;-0.85;79.72
77235;BME280;66253;50.526;14.974;2024-01-15T06:41:05;97204.89;;;-0.90;79.28
77235;BME280;66253;50.526;14.974;2024-01-15T06:43:33;97218.04;;;-0.92;79.55
77235;BME280;66253;50.526;14.974;2024-01-15T06:46:01;97223.95;;;-0.93;79.38
77235;BME280;66253;50.526;14.974;2024-01-15T06:48:30;97223.66;;;-0.95;79.43
77235;BME280;66253;50.526;14.974;2024-01-15T06:50:58;97228.68;;;-0.94;79.86
77235;BME280;66253;50.526;14.974;2024-01-15T06:53:27;97231.21;;;-0.95;79.67
77235;BME280;66253;50.526;14.974;2024-01-15T06:55:55;97226.55;;;-0.96;80.10
77235;BME280;66253;50.526;14.974;2024-01-15T06:58:23;97230.54;;;-0.95;80.48
77235;BME280;66253;50.526;14.974;2024-01-15T07:00:51;97233.63;;;-0.92;80.06
77235;BME280;66253;50.526;14.974;2024-01-15T07:03:20;97234.93;;;-0.91;79.94
77235;BME280;66253;50.526;14.974;2024-01-15T07:05:48;97238.08;;;-0.91;80.10
77235;BME280;66253;50.526;14.974;2024-01-15T07:08:17;97234.55;;;-0.90;80.26
77235;BME280;66253;50.526;14.974;2024-01-15T07:10:47;97240.67;;;-0.88;80.07
77235;BME280;66253;50.526;14.974;2024-01-15T07:13:15;97235.92;;;-0.87;79.93
77235;BME280;66253;50.526;14.974;2024-01-15T07:15:43;97236.03;;;-0.86;80.04
77235;BME280;66253;50.526;14.974;2024-01-15T07:18:12;97238.63;;;-0.83;79.84
77235;BME280;66253;50.526;14.974;2024-01-15T07:20:40;97242.60;;;-0.82;80.14
77235;BME280;66253;50.526;14.974;2024-01-15T07:23:08;97247.02;;;-0.80;79.95
77235;BME280;66253;50.526;14.974;2024-01-15T07:25:36;97248.73;;;-0.77;79.93
77235;BME280;66253;50.526;14.974;2024-01-15T07:28:06;97248.63;;;-0.75;79.83
77235;BME280;66253;50.526;14.974;2024-01-15T07:30:34;97252.36;;;-0.72;79.62
77235;BME280;66253;50.526;14.974;2024-01-15T07:33:02;97252.59;;;-0.68;79.84
77235;BME280;66253;50.526;14.974;2024-01-15T07:35:31;97245.89;;;-0.65;79.95
77235;BME280;66253;50.526;14.974;2024-01-15T07:37:59;97243.07;;;-0.61;79.73
77235;BME280;66253;50.526;14.974;2024-01-15T07:40:28;97241.55;;;-0.58;79.96
77235;BME280;66253;50.526;14.974;2024-01-15T07:42:56;97245.11;;;-0.55;79.81
77235;BME280;66253;50.526;14.974;2024-01-15T07:45:24;97247.36;;;-0.52;79.22
77235;BME280;66253;50.526;14.974;2024-01-15T07:47:53;97256.41;;;-0.52;79.43
77235;BME280;66253;50.526;14.974;2024-01-15T07:50:21;97254.64;;;-0.50;79.10
77235;BME280;66253;50.526;14.974;2024-01-15T07:52:50;97258.22;;;-0.48;79.32
77235;BME280;66253;50.526;14.974;2024-01-15T07:55:18;97260.63;;;-0.45;78.68
77235;BME280;66253;50.526;14.974;2024-01-15T07:57:46;97251.96;;;-0.42;78.27
77235;BME280;66253;50.526;14.974;2024-01-15T08:00:16;97250.15;;;-0.39;78.33
77235;BME280;66253;50.526;14.974;2024-01-15T08:02:44;97245.70;;;-0.38;77.39
77235;BME280;66253;50.526;14.974;2024-01-15T08:05:12;97247.56;;;-0.34;77.87
77235;BME280;66253;50.526;14.974;2024-01-15T08:07:40;97244.23;;;-0.31;78.18
77235;BME280;66253;50.526;14.974;2024-01-15T08:10:09;97244.48;;;-0.29;77.36
77235;BME280;66253;50.526;14.974;2024-01-15T08:12:38;97241.08;;;-0.27;77.54
77235;BME280;66253;50.526;14.974;2024-01-15T08:15:07;97242.16;;;-0.26;77.86
77235;BME280;66253;50.526;14.974;2024-01-15T08:17:35;97240.44;;;-0.25;77.80
77235;BME280;66253;50.526;14.974;2024-01-15T08:20:04;97238.70;;;-0.23;77.06
77235;BME280;66253;50.526;14.974;2024-01-15T08:22:33;97238.34;;;-0.22;77.17
77235;BME280;66253;50.526;14.974;2024-01-15T08:25:02;97236.08;;;-0.21;77.05
77235;BME280;66253;50.526;14.974;2024-01-15T08:27:34;97235.70;;;-0.20;76.94
77235;BME280;66253;50.526;14.974;2024-01-15T08:30:03;97231.50;;;-0.19;75.84
77235;BME280;66253;50.526;14.974;2024-01-15T08:32:31;97232.14;;;-0.18;75.89
77235;BME280;66253;50.526;14.974;2024-01-15T08:35:00;97228.92;;;-0.18;76.44
77235;BME280;66253;50.526;14.974;2024-01-15T08:37:28;97234.77;;;-0.14;76.54
77235;BME280;66253;50.526;14.974;2024-01-15T08:39:57;97231.94;;;-0.11;76.37
77235;BME280;66253;50.526;14.974;2024-01-15T08:42:25;97230.38;;;-0.06;76.66
77235;BME280;66253;50.526;14.974;2024-01-15T08:44:53;97237.08;;;-0.02;76.60
77235;BME280;66253;50.526;14.974;2024-01-15T08:47:22;97242.62;;;0.02;76.34
77235;BME280;66253;50.526;14.974;2024-01-15T08:49:50;97249.52;;;0.05;76.23
77235;BME280;66253;50.526;14.974;2024-01-15T08:52:19;97249.59;;;0.07;76.08
77235;BME280;66253;50.526;14.974;2024-01-15T08:54:47;97249.87;;;0.09;76.21
77235;BME280;66253;50.526;14.974;2024-01-15T08:57:15;97256.75;;;0.12;75.70
77235;BME280;66253;50.526;14.974;2024-01-15T08:59:44;97255.30;;;0.15;75.75
77235;BME280;66253;50.526;14.974;2024-01-15T09:02:15;97254.48;;;0.14;75.29
77235;BME280;66253;50.526;14.974;2024-01-15T09:04:43;97257.51;;;0.14;75.16
77235;BME280;66253;50.526;14.974;2024-01-15T09:07:12;97259.76;;;0.16;75.71
77235;BME280;66253;50.526;14.974;2024-01-15T09:09:40;97258.13;;;0.19;74.75
77235;BME280;66253;50.526;14.974;2024-01-15T09:12:09;97260.38;;;0.17;73.74
77235;BME280;66253;50.526;14.974;2024-01-15T09:14:38;97256.69;;;0.17;74.68
77235;BME280;66253;50.526;14.974;2024-01-15T09:17:09;97258.10;;;0.19;74.53
77235;BME280;66253;50.526;14.974;2024-01-15T09:19:37;97253.80;;;0.22;74.90
77235;BME280;66253;50.526;14.974;2024-01-15T09:22:06;97257.16;;;0.26;74.92
77235;BME280;66253;50.526;14.974;2024-01-15T09:24:34;97256.65;;;0.30;73.97
77235;BME280;66253;50.526;14.974;2024-01-15T09:27:03;97260.41;;;0.32;73.60
77235;BME280;66253;50.526;14.974;2024-01-15T09:29:32;97255.95;;;0.34;73.75
77235;BME280;66253;50.526;14.974;2024-01-15T09:32:00;97256.30;;;0.37;73.06
77235;BME280;66253;50.526;14.974;2024-01-15T09:34:29;97258.45;;;0.41;73.76
77235;BME280;66253;50.526;14.974;2024-01-15T09:36:57;97254.42;;;0.44;73.25
77235;BME280;66253;50.526;14.974;2024-01-15T09:39:25;97249.83;;;0.46;73.35
77235;BME280;66253;50.526;14.974;2024-01-15T09:41:54;97239.42;;;0.46;72.10
77235;BME280;66253;50.526;14.974;2024-01-15T09:44:23;97234.59;;;0.45;72.27
77235;BME280;66253;50.526;14.974;2024-01-15T09:46:53;97226.55;;;0.44;71.99
77235;BME280;66253;50.526;14.974;2024-01-15T09:49:21;97221.05;;;0.47;72.13
77235;BME280;66253;50.526;14.974;2024-01-15T09:51:50;97216.00;;;0.51;72.65
77235;BME280;66253;50.526;14.974;2024-01-15T09:54:18;97211.97;;;0.55;72.10
77235;BME280;66253;50.526;14.974;2024-01-15T09:56:48;97205.84;;;0.56;71.86
77235;BME280;66253;50.526;14.974;2024-01-15T09:59:18;97204.73;;;0.58;72.43
77235;BME280;66253;50.526;14.974;2024-01-15T10:01:45;97200.81;;;0.60;70.77
77235;BME280;66253;50.526;14.974;2024-01-15T10:04:13;97199.09;;;0.61;71.09
77235;BME280;66253;50.526;14.974;2024-01-15T10:06:45;97197.13;;;0.59;71.18
77235;BME280;66253;50.526;14.974;2024-01-15T10:09:14;97199.40;;;0.58;71.10
77235;BME280;66253;50.526;14.974;2024-01-15T10:11:43;97197.23;;;0.57;71.28
77235;BME280;66253;50.526;14.974;2024-01-15T10:14:12;97200.59;;;0.57;71.39
77235;BME280;66253;50.526;14.974;2024-01-15T10:16:40;97201.80;;;0.56;70.97
77235;BME280;66253;50.526;14.974;2024-01-15T10:19:09;97199.71;;;0.55;70.90
77235;BME280;66253;50.526;14.974;2024-01-15T10:21:38;97198.46;;;0.56;71.47
77235;BME280;66253;50.526;14.974;2024-01-15T10:24:07;97197.78;;;0.60;71.50
77235;BME280;66253;50.526;14.974;2024-01-15T10:26:35;97196.92;;;0.60;71.53
77235;BME280;66253;50.526;14.974;2024-01-15T10:29:03;97184.95;;;0.58;70.24
77235;BME280;66253;50.526;14.974;2024-01-15T10:31:32;97185.71;;;0.55;70.90
77235;BME280;66253;50.526;14.974;2024-01-15T10:34:11;97175.02;;;0.55;70.31
77235;BME280;66253;50.526;14.974;2024-01-15T10:36:41;97166.71;;;0.53;70.84
77235;BME280;66253;50.526;14.974;2024-01-15T10:39:14;97168.20;;;0.57;70.56
77235;BME280;66253;50.526;14.974;2024-01-15T10:41:43;97167.50;;;0.60;70.43
77235;BME280;66253;50.526;14.974;2024-01-15T10:44:14;97172.95;;;0.66;70.95
77235;BME280;66253;50.526;14.974;2024-01-15T10:46:42;97169.61;;;0.69;71.06
77235;BME280;66253;50.526;14.974;2024-01-15T10:49:12;97164.39;;;0.73;70.91
77235;BME280;66253;50.526;14.974;2024-01-15T10:51:43;97161.51;;;0.77;70.42
77235;BME280;66253;50.526;14.974;2024-01-15T10:54:13;97156.63;;;0.81;70.14
77235;BME280;66253;50.526;14.974;2024-01-15T10:56:42;97154.59;;;0.81;70.48
77235;BME280;66253;50.526;14.974;2024-01-15T10:59:13;97157.36;;;0.79;70.44
77235;BME280;66253;50.526;14.974;2024-01-15T11:01:43;97155.15;;;0.76;69.87
77235;BME280;66253;50.526;14.974;2024-01-15T11:04:11;97151.71;;;0.74;69.86
77235;BME280;66253;50.526;14.974;2024-01-15T11:06:47;97150.88;;;0.74;69.92
77235;BME280;66253;50.526;14.974;2024-01-15T11:09:16;97159.44;;;0.74;69.51
77235;BME280;66253;50.526;14.974;2024-01-15T11:11:47;97165.10;;;0.75;69.55
77235;BME280;66253;50.526;14.974;2024-01-15T11:14:35;97166.17;;;0.78;69.66
77235;BME280;66253;50.526;14.974;2024-01-15T11:17:06;97168.43;;;0.83;69.72
77235;BME280;66253;50.526;14.974;2024-01-15T11:19:44;97166.05;;;0.83;68.90
77235;BME280;66253;50.526;14.974;2024-01-15T11:25:17;97159.50;;;0.77;69.52
77235;BME280;66253;50.526;14.974;2024-01-15T11:27:47;97156.34;;;0.76;69.44
77235;BME280;66253;50.526;14.974;2024-01-15T11:30:16;97159.96;;;0.74;68.92
77235;BME280;66253;50.526;14.974;2024-01-15T11:32:44;97154.24;;;0.81;69.53
77235;BME280;66253;50.526;14.974;2024-01-15T11:35:12;97154.16;;;0.89;69.03
77235;BME280;66253;50.526;14.974;2024-01-15T11:38:00;97152.41;;;0.97;69.21
77235;BME280;66253;50.526;14.974;2024-01-15T11:40:45;97151.56;;;1.07;69.51
77235;BME280;66253;50.526;14.974;2024-01-15T11:43:14;97153.19;;;1.15;68.57
77235;BME280;66253;50.526;14.974;2024-01-15T11:45:43;97157.05;;;1.22;68.43
77235;BME280;66253;50.526;14.974;2024-01-15T11:48:20;97154.54;;;1.28;69.00
77235;BME280;66253;50.526;14.974;2024-01-15T11:50:50;97148.02;;;1.37;68.99
77235;BME280;66253;50.526;14.974;2024-01-15T11:53:26;97148.05;;;1.46;69.08
77235;BME280;66253;50.526;14.974;2024-01-15T11:55:58;97148.89;;;1.56;68.75
77235;BME280;66253;50.526;14.974;2024-01-15T11:58:27;97141.20;;;1.64;67.96
77235;BME280;66253;50.526;14.974;2024-01-15T12:00:56;97140.35;;;1.74;68.12
77235;BME280;66253;50.526;14.974;2024-01-15T12:03:25;97132.83;;;1.82;67.56
77235;BME280;66253;50.526;14.974;2024-01-15T12:05:55;97132.66;;;1.89;67.16
77235;BME280;66253;50.526;14.974;2024-01-15T12:08:26;97135.97;;;1.96;67.04
77235;BME280;66253;50.526;14.974;2024-01-15T12:10:54;97135.91;;;2.03;67.20
77235;BME280;66253;50.526;14.974;2024-01-15T12:13:23;97139.39;;;2.10;67.21
77235;BME280;66253;50.526;14.974;2024-01-15T12:15:54;97139.04;;;2.17;67.13
77235;BME280;66253;50.526;14.974;2024-01-15T12:18:22;97138.44;;;2.21;66.30
77235;BME280;66253;50.526;14.974;2024-01-15T12:20:50;97138.66;;;2.26;66.73
77235;BME280;66253;50.526;14.974;2024-01-15T12:23:23;97136.19;;;2.31;66.50
77235;BME280;66253;50.526;14.974;2024-01-15T12:25:51;97129.76;;;2.35;66.45
77235;BME280;66253;50.526;14.974;2024-01-15T12:28:20;97131.09;;;2.35;66.99
77235;BME280;66253;50.526;14.974;2024-01-15T12:30:49;97127.50;;;2.33;66.78
77235;BME280;66253;50.526;14.974;2024-01-15T12:33:19;97126.02;;;2.27;65.89
77235;BME280;66253;50.526;14.974;2024-01-15T12:35:47;97130.05;;;2.24;66.58
77235;BME280;66253;50.526;14.974;2024-01-15T12:38:16;97129.59;;;2.20;66.61
77235;BME280;66253;50.526;14.974;2024-01-15T12:40:46;97130.73;;;2.15;65.94
77235;BME280;66253;50.526;14.974;2024-01-15T12:43:15;97130.73;;;2.08;66.46
77235;BME280;66253;50.526;14.974;2024-01-15T12:45:43;97133.23;;;2.03;66.35
77235;BME280;66253;50.526;14.974;2024-01-15T12:48:11;97133.15;;;1.95;65.39
77235;BME280;66253;50.526;14.974;2024-01-15T12:50:40;97130.55;;;1.90;66.09
77235;BME280;66253;50.526;14.974;2024-01-15T12:53:10;97124.34;;;1.90;66.61
77235;BME280;66253;50.526;14.974;2024-01-15T12:55:39;97125.14;;;1.94;66.88
77235;BME280;66253;50.526;14.974;2024-01-15T12:58:07;97121.25;;;2.00;66.89
77235;BME280;66253;50.526;14.974;2024-01-15T13:00:35;97124.79;;;2.03;66.40
77235;BME280;66253;50.526;14.974;2024-01-15T13:03:05;97115.81;;;2.07;66.56
77235;BME280;66253;50.526;14.974;2024-01-15T13:05:34;97117.85;;;2.13;65.83
77235;BME280;66253;50.526;14.974;2024-01-15T13:08:03;97119.45;;;2.21;66.22